Time;durP1;ratioP1;P1;durP2;ratioP2;P2;SDS_P1;SDS_P2;PMS_P1;PMS_P2;Temp;Humidity;BMP_temperature;BMP_pressure;BME280_temperature;BME280_humidity;BME280_pressure;Samples;Min_cycle;Max_cycle;Signal;HPM_P1;HPM_P2
2023/08/29 00:00:31;;;;;;;0.10;0.10;;;15.90;99.90;;;;;;5050381;28;20470;-82
2023/08/29 00:02:57;;;;;;;0.10;0.10;;;15.80;99.90;;;;;;5050469;28;20180;-84
2023/08/29 00:05:22;;;;;;;0.10;0.10;;;15.90;99.90;;;;;;5050650;28;20191;-84
2023/08/29 00:07:48;;;;;;;0.10;0.10;;;15.90;99.90;;;;;;5050985;28;20674;-83
2023/08/29 00:10:22;;;;;;;0.10;0.10;;;15.90;99.90;;;;;;5065234;28;20565;-83
2023/08/29 00:12:48;;;;;;;0.10;0.10;;;15.90;99.90;;;;;;5049059;28;20193;-83
2023/08/29 00:15:13;;;;;;;0.10;0.10;;;15.80;99.90;;;;;;5050118;28;20228;-84
2023/08/29 00:17:39;;;;;;;0.10;0.10;;;15.70;99.90;;;;;;5052620;28;20182;-82
2023/08/29 00:20:06;;;;;;;0.10;0.10;;;15.70;99.90;;;;;;5049376;28;20198;-82
2023/08/29 00:22:32;;;;;;;0.10;0.10;;;15.70;99.90;;;;;;5049570;28;20208;-83
2023/08/29 00:24:58;;;;;;;0.10;0.10;;;15.60;99.90;;;;;;5067158;28;20220;-83
2023/08/29 00:27:24;;;;;;;0.10;0.10;;;15.50;99.90;;;;;;5049043;28;20189;-83
2023/08/29 00:29:49;;;;;;;0.10;0.10;;;15.50;99.90;;;;;;5058072;28;20194;-83
2023/08/29 00:32:15;;;;;;;0.10;0.10;;;15.70;99.90;;;;;;5050075;28;20194;-83
2023/08/29 00:34:40;;;;;;;0.10;0.10;;;15.80;99.90;;;;;;5050094;28;20220;-84
2023/08/29 00:37:06;;;;;;;0.10;0.10;;;15.90;99.90;;;;;;5049896;28;20185;-82
2023/08/29 00:39:31;;;;;;;0.10;0.10;;;15.90;99.90;;;;;;5050363;28;20293;-83
2023/08/29 00:41:57;;;;;;;0.10;0.10;;;16.00;99.90;;;;;;5048653;28;20185;-82
2023/08/29 00:44:23;;;;;;;0.10;0.10;;;16.00;99.90;;;;;;5049754;28;20210;-81
2023/08/29 00:46:49;;;;;;;0.10;0.10;;;15.90;99.90;;;;;;5050601;28;20189;-83
2023/08/29 00:49:18;;;;;;;0.10;0.10;;;16.00;99.90;;;;;;5049886;28;20186;-83
2023/08/29 00:51:45;;;;;;;0.10;0.10;;;15.90;99.90;;;;;;5050483;28;20208;-83
2023/08/29 00:54:12;;;;;;;0.10;0.10;;;16.00;99.90;;;;;;5050668;28;20201;-83
2023/08/29 00:56:38;;;;;;;0.10;0.10;;;16.00;99.90;;;;;;5059751;28;20205;-83
2023/08/29 00:59:04;;;;;;;0.10;0.10;;;15.90;99.90;;;;;;5050305;28;20182;-83
2023/08/29 01:01:32;;;;;;;0.10;0.10;;;15.80;99.90;;;;;;5049091;28;20186;-84
2023/08/29 01:03:59;;;;;;;0.10;0.10;;;15.70;99.90;;;;;;5064723;28;20312;-83
2023/08/29 01:06:25;;;;;;;0.10;0.10;;;15.70;99.90;;;;;;5050195;28;20255;-83
2023/08/29 01:08:51;;;;;;;0.10;0.10;;;15.80;99.90;;;;;;5048573;28;20205;-83
2023/08/29 01:11:37;;;;;;;0.10;0.10;;;15.80;99.90;;;;;;5048513;28;20186;-82
2023/08/29 01:14:21;;;;;;;0.10;0.10;;;15.80;99.90;;;;;;5050228;28;20239;-83
2023/08/29 01:16:59;;;;;;;0.10;0.10;;;15.90;99.90;;;;;;5048341;28;20197;-84
2023/08/29 01:19:25;;;;;;;0.10;0.10;;;16.00;99.90;;;;;;5049702;28;20642;-83
2023/08/29 01:22:25;;;;;;;0.10;0.10;;;16.10;99.90;;;;;;5048947;28;20268;-83
2023/08/29 01:25:08;;;;;;;0.10;0.10;;;16.00;99.90;;;;;;5047417;28;20204;-83
2023/08/29 01:27:35;;;;;;;0.10;0.10;;;16.00;99.90;;;;;;5048568;28;20605;-83
2023/08/29 01:30:03;;;;;;;0.10;0.10;;;15.90;99.90;;;;;;5063949;28;20193;-84
2023/08/29 01:32:29;;;;;;;0.10;0.10;;;16.00;99.90;;;;;;5049548;28;20547;-82
2023/08/29 01:34:56;;;;;;;0.10;0.10;;;16.00;99.90;;;;;;5049594;28;20523;-83
2023/08/29 01:37:21;;;;;;;0.10;0.10;;;15.90;99.90;;;;;;5048475;28;20184;-84
2023/08/29 01:39:47;;;;;;;0.10;0.10;;;15.90;99.90;;;;;;5048867;28;20275;-83
2023/08/29 01:42:12;;;;;;;0.10;0.10;;;15.90;99.90;;;;;;5050011;28;20245;-83
2023/08/29 01:44:38;;;;;;;0.10;0.10;;;15.90;99.90;;;;;;5048755;28;20201;-82
2023/08/29 01:47:03;;;;;;;0.10;0.10;;;16.00;99.90;;;;;;5049597;28;20654;-83
2023/08/29 01:49:32;;;;;;;0.10;0.10;;;15.90;99.90;;;;;;5049316;28;20185;-83
2023/08/29 01:51:58;;;;;;;0.10;0.10;;;15.90;99.90;;;;;;5049039;28;20239;-83
2023/08/29 01:54:24;;;;;;;0.10;0.10;;;15.80;99.90;;;;;;5050401;28;20275;-83
2023/08/29 01:56:51;;;;;;;0.10;0.10;;;15.80;99.90;;;;;;5047144;28;20212;-83
2023/08/29 01:59:17;;;;;;;0.10;0.10;;;15.80;99.90;;;;;;5049052;28;20178;-83
2023/08/29 02:01:44;;;;;;;0.10;0.10;;;15.80;99.90;;;;;;5048041;28;20173;-82
2023/08/29 02:04:09;;;;;;;0.10;0.10;;;15.90;99.90;;;;;;5049155;28;20201;-82
2023/08/29 02:06:35;;;;;;;0.10;0.10;;;16.00;99.90;;;;;;5049606;28;20297;-82
2023/08/29 02:09:00;;;;;;;0.10;0.10;;;16.00;99.90;;;;;;5049151;28;21052;-83
2023/08/29 02:11:26;;;;;;;0.10;0.10;;;16.10;99.90;;;;;;5047218;28;20189;-84
2023/08/29 02:13:52;;;;;;;0.10;0.10;;;16.10;99.90;;;;;;5047925;28;20682;-83
2023/08/29 02:16:17;;;;;;;0.10;0.10;;;16.10;99.90;;;;;;5049290;28;20241;-83
2023/08/29 02:18:42;;;;;;;0.10;0.10;;;16.00;99.90;;;;;;5049264;28;20536;-83
2023/08/29 02:21:08;;;;;;;0.10;0.10;;;16.00;99.90;;;;;;5049376;28;20185;-84
2023/08/29 02:23:33;;;;;;;0.10;0.10;;;15.90;99.90;;;;;;5048392;28;20220;-83
2023/08/29 02:26:03;;;;;;;0.10;0.10;;;15.90;99.90;;;;;;5049509;28;20276;-83
2023/08/29 02:28:32;;;;;;;0.10;0.10;;;15.90;99.90;;;;;;5049369;28;20191;-84
2023/08/29 02:31:03;;;;;;;0.10;0.10;;;15.90;99.90;;;;;;5048026;28;20190;-83
2023/08/29 02:33:28;;;;;;;0.10;0.10;;;15.90;99.90;;;;;;5049660;28;20217;-84
2023/08/29 02:35:54;;;;;;;0.10;0.10;;;15.90;99.90;;;;;;5049439;28;20344;-83
2023/08/29 02:38:19;;;;;;;0.10;0.10;;;15.90;99.90;;;;;;5051535;28;20202;-83
2023/08/29 02:40:45;;;;;;;0.10;0.10;;;16.00;99.90;;;;;;5053189;28;20217;-83
2023/08/29 02:43:10;;;;;;;0.10;0.10;;;16.00;99.90;;;;;;5059356;28;20189;-82
2023/08/29 02:45:36;;;;;;;0.10;0.10;;;16.00;99.90;;;;;;5068326;28;20296;-83
2023/08/29 02:48:01;;;;;;;0.10;0.10;;;16.00;99.90;;;;;;5062187;28;20188;-82
2023/08/29 02:50:27;;;;;;;0.00;0.00;;;16.00;99.90;;;;;;5052547;28;20182;-83
2023/08/29 02:52:52;;;;;;;0.10;0.10;;;15.90;99.90;;;;;;5050288;28;20259;-82
2023/08/29 02:55:18;;;;;;;0.10;0.10;;;15.80;99.90;;;;;;5051808;28;20299;-83
2023/08/29 02:57:43;;;;;;;0.10;0.10;;;15.80;99.90;;;;;;5052265;28;20185;-82
2023/08/29 03:00:10;;;;;;;0.10;0.10;;;15.80;99.90;;;;;;5051479;28;20178;-83
2023/08/29 03:02:36;;;;;;;0.10;0.10;;;15.80;99.90;;;;;;5051496;28;20284;-84
2023/08/29 03:05:02;;;;;;;0.10;0.10;;;15.80;99.90;;;;;;5051720;28;20213;-83
2023/08/29 03:07:28;;;;;;;0.10;0.10;;;15.80;99.90;;;;;;5051267;28;20213;-82
2023/08/29 03:09:53;;;;;;;0.10;0.10;;;15.70;99.90;;;;;;5049739;28;20204;-83
2023/08/29 03:12:19;;;;;;;0.10;0.10;;;15.70;99.90;;;;;;5050627;28;20331;-83
2023/08/29 03:14:44;;;;;;;0.10;0.10;;;15.80;99.90;;;;;;5050430;28;20209;-83
2023/08/29 03:17:10;;;;;;;0.10;0.10;;;15.90;99.90;;;;;;5050283;28;20670;-84
2023/08/29 03:19:35;;;;;;;0.10;0.10;;;15.90;99.90;;;;;;5050983;28;20201;-84
2023/08/29 03:22:01;;;;;;;0.10;0.10;;;15.90;99.90;;;;;;5050462;28;21157;-82
2023/08/29 03:24:26;;;;;;;0.10;0.10;;;15.90;99.90;;;;;;5051582;28;20299;-84
2023/08/29 03:26:52;;;;;;;0.10;0.10;;;15.80;99.90;;;;;;5050052;28;20221;-82
2023/08/29 03:29:18;;;;;;;0.10;0.10;;;15.80;99.90;;;;;;5052276;28;20189;-83
2023/08/29 03:31:43;;;;;;;0.10;0.10;;;15.80;99.90;;;;;;5050201;28;20204;-83
2023/08/29 03:34:09;;;;;;;0.10;0.10;;;15.80;99.90;;;;;;5052333;28;20212;-83
2023/08/29 03:36:34;;;;;;;0.10;0.10;;;15.90;99.90;;;;;;5066041;28;20210;-83
2023/08/29 03:39:00;;;;;;;0.10;0.10;;;16.00;99.90;;;;;;5050466;28;20193;-83
2023/08/29 03:41:25;;;;;;;0.10;0.10;;;16.10;99.90;;;;;;5049414;28;20276;-82
2023/08/29 03:43:51;;;;;;;0.10;0.10;;;16.10;99.90;;;;;;5051095;28;20253;-83
2023/08/29 03:46:17;;;;;;;0.10;0.10;;;16.20;99.90;;;;;;5050479;28;20309;-82
2023/08/29 03:48:42;;;;;;;0.10;0.10;;;16.20;99.90;;;;;;5066118;28;20299;-82
2023/08/29 03:51:08;;;;;;;0.10;0.10;;;16.20;99.90;;;;;;5049660;28;20189;-83
2023/08/29 03:53:37;;;;;;;0.10;0.10;;;16.20;99.90;;;;;;5058706;28;20212;-82
2023/08/29 03:56:04;;;;;;;0.10;0.10;;;16.30;99.90;;;;;;5050729;28;20252;-82
2023/08/29 03:58:33;;;;;;;0.10;0.10;;;16.30;99.90;;;;;;5050484;28;20269;-82
2023/08/29 04:00:59;;;;;;;0.10;0.10;;;16.30;99.90;;;;;;5051000;28;20190;-83
2023/08/29 04:03:24;;;;;;;0.10;0.10;;;16.30;99.90;;;;;;5050909;28;20212;-83
2023/08/29 04:05:50;;;;;;;0.10;0.10;;;16.40;99.90;;;;;;5049967;28;20212;-83
2023/08/29 04:08:15;;;;;;;0.10;0.10;;;16.40;99.90;;;;;;5042721;28;20272;-82
2023/08/29 04:10:41;;;;;;;0.10;0.10;;;16.40;99.90;;;;;;5048527;28;20178;-83
2023/08/29 04:13:08;;;;;;;0.10;0.10;;;16.40;99.90;;;;;;5048897;28;20190;-83
2023/08/29 04:15:37;;;;;;;0.10;0.10;;;16.50;99.90;;;;;;5065852;28;20216;-83
2023/08/29 04:18:03;;;;;;;0.10;0.10;;;16.50;99.90;;;;;;5049912;28;20209;-83
2023/08/29 04:20:30;;;;;;;0.10;0.10;;;16.40;99.90;;;;;;5048994;28;20188;-82
2023/08/29 04:22:56;;;;;;;0.10;0.10;;;16.40;99.90;;;;;;5047855;28;20181;-83
2023/08/29 04:25:21;;;;;;;0.10;0.10;;;16.40;99.90;;;;;;5049162;28;20202;-84
2023/08/29 04:27:48;;;;;;;0.10;0.10;;;16.40;99.90;;;;;;5050042;28;20219;-82
2023/08/29 04:30:14;;;;;;;0.10;0.10;;;16.40;99.90;;;;;;5048787;28;20182;-83
2023/08/29 04:32:39;;;;;;;0.10;0.10;;;16.40;99.90;;;;;;5048858;28;20189;-83
2023/08/29 04:35:06;;;;;;;0.10;0.10;;;16.30;99.90;;;;;;5048210;28;20212;-83
2023/08/29 04:37:35;;;;;;;0.10;0.10;;;16.20;99.90;;;;;;5061470;28;20643;-83
2023/08/29 04:40:06;;;;;;;0.10;0.10;;;16.10;99.90;;;;;;5047680;28;20219;-83
2023/08/29 04:42:32;;;;;;;0.10;0.10;;;16.10;99.90;;;;;;5047500;28;20231;-83
2023/08/29 04:44:58;;;;;;;0.10;0.10;;;16.10;99.90;;;;;;5049570;28;20212;-82
2023/08/29 04:47:23;;;;;;;0.10;0.10;;;16.10;99.90;;;;;;5054756;28;20177;-82
2023/08/29 04:49:48;;;;;;;0.10;0.10;;;16.00;99.90;;;;;;5054225;28;20178;-82
2023/08/29 04:52:14;;;;;;;0.10;0.10;;;16.00;99.90;;;;;;5050259;28;20190;-81
2023/08/29 04:54:40;;;;;;;0.10;0.10;;;16.00;99.90;;;;;;5046747;28;20233;-81
2023/08/29 04:57:05;;;;;;;0.10;0.10;;;16.00;99.90;;;;;;5037115;28;20562;-81
2023/08/29 04:59:31;;;;;;;0.10;0.10;;;15.90;99.90;;;;;;5045974;28;20184;-81
2023/08/29 05:01:56;;;;;;;0.10;0.10;;;15.80;99.90;;;;;;5048026;28;20186;-80
2023/08/29 05:04:22;;;;;;;0.00;0.00;;;15.80;99.90;;;;;;5046162;28;20205;-81
2023/08/29 05:06:48;;;;;;;0.10;0.10;;;15.80;99.90;;;;;;5047369;28;20189;-80
2023/08/29 05:09:14;;;;;;;0.10;0.10;;;15.90;99.90;;;;;;5043817;28;20184;-81
2023/08/29 05:11:39;;;;;;;0.10;0.10;;;15.80;99.90;;;;;;5047721;28;20205;-82
2023/08/29 05:14:05;;;;;;;0.10;0.10;;;15.90;99.90;;;;;;5047124;28;20204;-85
2023/08/29 05:16:32;;;;;;;0.10;0.10;;;15.90;99.90;;;;;;5046215;28;20198;-85
2023/08/29 05:18:58;;;;;;;0.10;0.10;;;15.80;99.90;;;;;;5047323;28;20185;-88
2023/08/29 05:21:24;;;;;;;0.10;0.10;;;15.80;99.90;;;;;;5043739;28;20181;-86
2023/08/29 05:23:49;;;;;;;0.10;0.10;;;15.80;99.90;;;;;;5043663;28;20255;-86
2023/08/29 05:26:26;;;;;;;0.10;0.10;;;15.80;99.90;;;;;;5041828;28;20189;-86
2023/08/29 05:28:52;;;;;;;0.10;0.10;;;15.80;99.90;;;;;;5045308;28;20195;-86
2023/08/29 05:31:17;;;;;;;0.10;0.10;;;15.80;99.90;;;;;;5045889;28;20544;-85
2023/08/29 05:33:44;;;;;;;0.10;0.10;;;15.70;99.90;;;;;;5044841;28;20271;-86
2023/08/29 05:36:11;;;;;;;0.10;0.10;;;15.60;99.90;;;;;;5042950;28;20247;-86
2023/08/29 05:38:37;;;;;;;0.10;0.10;;;15.60;99.90;;;;;;5043714;28;20173;-85
2023/08/29 05:41:03;;;;;;;0.10;0.10;;;15.70;99.90;;;;;;5044359;28;20206;-85
2023/08/29 05:43:28;;;;;;;0.10;0.10;;;15.60;99.90;;;;;;5043482;28;20205;-85
2023/08/29 05:45:55;;;;;;;0.10;0.10;;;15.70;99.90;;;;;;5042206;28;20197;-87
2023/08/29 05:48:21;;;;;;;0.10;0.10;;;15.70;99.90;;;;;;5044285;28;20192;-87
2023/08/29 05:50:50;;;;;;;0.10;0.10;;;15.70;99.90;;;;;;5044370;28;20181;-87
2023/08/29 05:53:16;;;;;;;0.10;0.10;;;15.70;99.90;;;;;;5044665;28;20193;-87
2023/08/29 05:55:47;;;;;;;0.10;0.10;;;15.70;99.90;;;;;;5044646;28;21257;-88
2023/08/29 05:58:13;;;;;;;0.10;0.10;;;15.80;99.90;;;;;;5044393;28;20238;-87
2023/08/29 06:00:38;;;;;;;0.10;0.10;;;15.80;99.90;;;;;;5041772;28;20188;-87
2023/08/29 06:03:06;;;;;;;0.10;0.10;;;15.80;99.90;;;;;;5044585;28;20188;-87
2023/08/29 06:05:32;;;;;;;0.10;0.10;;;15.90;99.90;;;;;;5061400;28;20183;-87
2023/08/29 06:08:02;;;;;;;0.10;0.10;;;15.90;99.90;;;;;;5043197;28;20209;-88
2023/08/29 06:10:28;;;;;;;0.10;0.10;;;15.80;99.90;;;;;;5044596;28;20266;-87
2023/08/29 06:12:53;;;;;;;0.10;0.10;;;15.90;99.90;;;;;;5047420;28;20185;-87
2023/08/29 06:15:19;;;;;;;0.10;0.10;;;15.90;99.90;;;;;;5048059;28;20212;-87
2023/08/29 06:17:45;;;;;;;0.10;0.10;;;15.90;99.90;;;;;;5046154;28;20197;-89
2023/08/29 06:20:11;;;;;;;0.10;0.10;;;15.90;99.90;;;;;;5048273;28;20169;-87
2023/08/29 06:22:38;;;;;;;0.10;0.10;;;15.90;99.90;;;;;;5046417;28;20558;-88
2023/08/29 06:25:04;;;;;;;0.10;0.10;;;16.10;99.90;;;;;;5046420;28;20217;-89
2023/08/29 06:27:53;;;;;;;0.10;0.10;;;16.20;99.90;;;;;;5064080;28;21075;-87
2023/08/29 06:30:30;;;;;;;0.10;0.10;;;16.30;99.90;;;;;;5049226;28;20196;-88
2023/08/29 06:32:55;;;;;;;0.10;0.10;;;16.10;99.90;;;;;;5039136;28;20198;-86
2023/08/29 06:35:21;;;;;;;0.10;0.10;;;16.10;99.90;;;;;;5039909;28;20217;-83
2023/08/29 06:37:46;;;;;;;0.10;0.10;;;16.20;99.90;;;;;;5046911;28;20192;-82
2023/08/29 06:40:12;;;;;;;0.10;0.10;;;16.30;99.90;;;;;;5046909;28;20735;-83
2023/08/29 06:42:37;;;;;;;0.10;0.10;;;16.20;99.90;;;;;;5045742;28;20201;-83
2023/08/29 06:45:05;;;;;;;0.10;0.10;;;16.30;99.90;;;;;;5046212;28;21303;-84
2023/08/29 06:47:31;;;;;;;0.10;0.10;;;16.50;99.90;;;;;;5046871;28;20217;-84
2023/08/29 06:49:57;;;;;;;0.10;0.10;;;16.60;99.90;;;;;;5042515;28;20220;-84
2023/08/29 06:52:22;;;;;;;0.10;0.10;;;16.60;99.90;;;;;;5045258;28;20185;-84
2023/08/29 06:54:48;;;;;;;0.10;0.10;;;16.70;99.90;;;;;;5049296;28;20873;-83
2023/08/29 06:57:13;;;;;;;0.10;0.10;;;16.80;99.90;;;;;;5048354;28;20264;-83
2023/08/29 06:59:39;;;;;;;0.10;0.10;;;16.70;99.90;;;;;;5051092;28;20235;-83
2023/08/29 07:02:05;;;;;;;0.10;0.10;;;16.90;99.90;;;;;;5049196;28;20311;-83
2023/08/29 07:04:30;;;;;;;0.10;0.10;;;17.10;99.90;;;;;;5053348;28;20205;-83
2023/08/29 07:06:56;;;;;;;0.10;0.10;;;17.10;99.90;;;;;;5053120;28;20251;-83
2023/08/29 07:09:21;;;;;;;0.10;0.10;;;17.30;99.90;;;;;;5053021;28;20285;-83
2023/08/29 07:11:47;;;;;;;0.10;0.10;;;17.40;99.90;;;;;;5051043;28;20190;-84
2023/08/29 07:14:13;;;;;;;0.10;0.10;;;17.50;99.90;;;;;;5048340;28;20284;-85
2023/08/29 07:16:38;;;;;;;0.10;0.10;;;17.60;99.90;;;;;;5049418;28;20210;-84
2023/08/29 07:19:05;;;;;;;0.10;0.10;;;17.60;99.90;;;;;;5050382;28;20737;-84
2023/08/29 07:21:30;;;;;;;0.10;0.10;;;17.70;99.90;;;;;;5045568;28;20174;-83
2023/08/29 07:23:56;;;;;;;0.10;0.10;;;17.80;99.90;;;;;;5047319;28;20210;-83
2023/08/29 07:26:21;;;;;;;0.10;0.10;;;17.90;99.90;;;;;;5045810;28;20188;-83
2023/08/29 07:28:47;;;;;;;0.10;0.10;;;18.10;99.90;;;;;;5045509;28;20554;-83
2023/08/29 07:31:13;;;;;;;0.10;0.10;;;18.00;99.90;;;;;;5045574;28;20200;-83
2023/08/29 07:33:38;;;;;;;0.10;0.10;;;17.90;99.90;;;;;;5045995;28;20237;-83
2023/08/29 07:36:04;;;;;;;0.10;0.10;;;18.20;99.90;;;;;;5045447;28;20198;-82
2023/08/29 07:38:30;;;;;;;0.10;0.10;;;18.40;99.90;;;;;;5043913;28;20281;-83
2023/08/29 07:40:57;;;;;;;0.10;0.10;;;18.40;99.90;;;;;;5047565;28;20186;-83
2023/08/29 07:43:22;;;;;;;0.10;0.10;;;18.50;99.90;;;;;;5043899;28;20320;-82
2023/08/29 07:45:52;;;;;;;0.10;0.10;;;18.80;99.90;;;;;;5045098;28;20484;-83
2023/08/29 07:48:21;;;;;;;0.10;0.10;;;19.00;99.90;;;;;;5053795;28;20182;-83
2023/08/29 07:50:46;;;;;;;0.10;0.10;;;19.20;99.90;;;;;;5052858;28;20234;-83
2023/08/29 07:53:12;;;;;;;0.10;0.10;;;19.40;99.90;;;;;;5052661;28;20185;-83
2023/08/29 07:55:41;;;;;;;0.10;0.10;;;19.50;99.90;;;;;;5055174;28;20345;-82
2023/08/29 07:58:07;;;;;;;0.10;0.10;;;19.40;99.90;;;;;;5054388;28;20191;-83
2023/08/29 08:00:33;;;;;;;0.10;0.10;;;19.70;99.90;;;;;;5053312;28;20174;-83
2023/08/29 08:03:00;;;;;;;0.10;0.10;;;19.80;99.90;;;;;;5053747;28;20272;-83
2023/08/29 08:05:26;;;;;;;0.10;0.10;;;20.00;99.90;;;;;;5052493;28;20208;-83
2023/08/29 08:07:51;;;;;;;0.10;0.10;;;19.90;99.90;;;;;;5053477;28;20195;-83
2023/08/29 08:10:18;;;;;;;0.10;0.10;;;20.00;99.90;;;;;;5051946;28;20189;-83
2023/08/29 08:12:46;;;;;;;0.10;0.10;;;20.10;99.90;;;;;;5053215;28;20199;-83
2023/08/29 08:15:12;;;;;;;0.10;0.10;;;19.90;99.90;;;;;;5052310;28;20601;-83
2023/08/29 08:17:38;;;;;;;0.10;0.10;;;20.30;99.90;;;;;;5049474;28;20215;-83
2023/08/29 08:20:08;;;;;;;0.10;0.10;;;20.30;99.90;;;;;;5052642;28;20178;-83
2023/08/29 08:22:34;;;;;;;0.10;0.10;;;20.30;99.90;;;;;;5057749;28;20637;-82
2023/08/29 08:25:00;;;;;;;0.10;0.10;;;20.60;99.90;;;;;;5046421;28;20725;-81
2023/08/29 08:27:25;;;;;;;0.10;0.10;;;20.50;99.90;;;;;;5047969;28;20205;-83
2023/08/29 08:29:51;;;;;;;0.10;0.10;;;20.50;99.90;;;;;;5045131;28;20205;-83
2023/08/29 08:32:16;;;;;;;0.10;0.10;;;20.40;99.90;;;;;;5046156;28;20217;-85
2023/08/29 08:34:42;;;;;;;0.20;0.20;;;20.20;99.90;;;;;;5046350;28;20197;-84
2023/08/29 08:37:08;;;;;;;0.10;0.10;;;19.90;99.90;;;;;;5045594;28;20209;-86
2023/08/29 08:39:34;;;;;;;0.10;0.10;;;19.80;99.90;;;;;;5045372;28;20209;-85
2023/08/29 08:42:02;;;;;;;0.10;0.10;;;20.20;99.90;;;;;;5046867;28;20182;-85
2023/08/29 08:44:30;;;;;;;0.10;0.10;;;20.30;99.90;;;;;;5045549;28;20208;-85
2023/08/29 08:46:57;;;;;;;0.10;0.10;;;20.20;99.90;;;;;;5046421;28;20228;-84
2023/08/29 08:49:23;;;;;;;0.10;0.10;;;20.50;99.90;;;;;;5061832;28;20193;-83
2023/08/29 08:51:49;;;;;;;0.10;0.10;;;20.20;99.90;;;;;;5048648;28;20186;-83
2023/08/29 08:54:15;;;;;;;0.10;0.10;;;20.50;99.90;;;;;;5049423;28;20209;-83
2023/08/29 08:56:41;;;;;;;0.10;0.10;;;20.80;99.90;;;;;;5048405;28;20205;-83
2023/08/29 08:59:07;;;;;;;0.10;0.10;;;20.20;99.90;;;;;;5049665;28;20197;-82
2023/08/29 09:01:33;;;;;;;0.10;0.10;;;20.50;99.90;;;;;;5046452;28;20186;-82
2023/08/29 09:03:59;;;;;;;0.10;0.10;;;20.60;99.90;;;;;;5047425;28;20216;-83
2023/08/29 09:06:25;;;;;;;0.10;0.10;;;20.70;99.90;;;;;;5049531;28;20185;-80
2023/08/29 09:08:51;;;;;;;0.10;0.10;;;21.00;99.90;;;;;;5046009;28;20204;-80
2023/08/29 09:11:20;;;;;;;0.10;0.10;;;20.50;99.90;;;;;;5037121;28;20670;-80
2023/08/29 09:13:48;;;;;;;0.10;0.10;;;19.60;99.90;;;;;;5045107;28;20360;-80
2023/08/29 09:16:14;;;;;;;0.10;0.10;;;19.60;99.90;;;;;;5042832;28;20227;-80
2023/08/29 09:18:43;;;;;;;0.10;0.10;;;19.60;99.90;;;;;;5043899;28;20201;-80
2023/08/29 09:21:16;;;;;;;0.10;0.10;;;20.00;99.90;;;;;;5046237;28;20609;-80
2023/08/29 09:23:43;;;;;;;0.10;0.10;;;20.10;99.90;;;;;;5046390;28;20295;-80
2023/08/29 09:26:11;;;;;;;0.10;0.10;;;20.40;99.90;;;;;;5046937;28;20196;-80
2023/08/29 09:28:38;;;;;;;0.10;0.10;;;20.70;99.90;;;;;;5046360;28;20189;-80
2023/08/29 09:31:08;;;;;;;0.10;0.10;;;21.10;99.90;;;;;;5046986;28;20832;-80
2023/08/29 09:33:34;;;;;;;0.10;0.10;;;21.10;99.90;;;;;;5041692;28;20209;-79
2023/08/29 09:36:07;;;;;;;0.10;0.10;;;20.30;99.90;;;;;;5045677;28;20223;-80
2023/08/29 09:38:34;;;;;;;0.10;0.10;;;20.20;99.90;;;;;;5043429;28;21274;-80
2023/08/29 09:41:00;;;;;;;0.10;0.10;;;20.20;99.90;;;;;;5043638;28;20802;-80
2023/08/29 09:43:28;;;;;;;0.10;0.10;;;20.30;99.90;;;;;;5047224;28;20208;-80
2023/08/29 09:45:54;;;;;;;0.10;0.10;;;20.00;99.90;;;;;;5047139;28;20303;-80
2023/08/29 09:48:20;;;;;;;0.10;0.10;;;20.00;99.90;;;;;;5048838;28;20193;-80
2023/08/29 09:50:47;;;;;;;0.10;0.10;;;20.60;99.90;;;;;;5049207;28;20189;-80
2023/08/29 09:53:18;;;;;;;0.10;0.10;;;21.20;99.90;;;;;;5049345;28;20186;-79
2023/08/29 09:55:46;;;;;;;0.10;0.10;;;21.70;99.90;;;;;;5050388;28;20301;-80
2023/08/29 09:58:14;;;;;;;0.10;0.10;;;21.30;99.90;;;;;;5059250;28;20662;-79
2023/08/29 10:00:41;;;;;;;0.10;0.10;;;20.90;99.90;;;;;;5048732;28;20182;-80
2023/08/29 10:03:08;;;;;;;0.10;0.10;;;21.00;99.90;;;;;;5049706;28;20697;-80
2023/08/29 10:05:36;;;;;;;0.10;0.10;;;21.40;99.90;;;;;;5052237;28;20178;-80
2023/08/29 10:08:26;;;;;;;0.10;0.10;;;21.50;99.90;;;;;;5048751;28;20232;-80
2023/08/29 10:10:55;;;;;;;0.10;0.10;;;22.20;99.90;;;;;;5049147;28;20197;-80
2023/08/29 10:13:21;;;;;;;0.10;0.10;;;22.40;99.90;;;;;;5050669;28;20719;-82
2023/08/29 10:15:47;;;;;;;0.10;0.10;;;22.60;99.90;;;;;;5053311;28;20251;-82
2023/08/29 10:18:13;;;;;;;0.10;0.10;;;23.40;99.90;;;;;;5050709;28;20243;-82
2023/08/29 10:20:43;;;;;;;0.10;0.10;;;22.50;99.90;;;;;;5065373;28;20193;-82
2023/08/29 10:23:10;;;;;;;0.10;0.10;;;22.50;99.90;;;;;;5051644;28;20181;-83
2023/08/29 10:25:38;;;;;;;0.10;0.10;;;22.10;99.90;;;;;;5048339;28;20219;-82
2023/08/29 10:28:06;;;;;;;0.10;0.10;;;21.80;99.90;;;;;;5050782;28;20201;-83
2023/08/29 10:30:32;;;;;;;0.10;0.10;;;21.80;99.90;;;;;;5060102;28;20209;-82
2023/08/29 10:33:00;;;;;;;0.10;0.10;;;22.40;99.90;;;;;;5050217;28;20308;-82
2023/08/29 10:35:31;;;;;;;0.10;0.10;;;22.40;99.90;;;;;;5050577;28;20710;-82
2023/08/29 10:38:00;;;;;;;0.10;0.10;;;22.40;99.90;;;;;;5048920;28;20189;-82
2023/08/29 10:40:38;;;;;;;0.10;0.10;;;22.10;99.90;;;;;;5049109;28;20186;-82
2023/08/29 10:43:14;;;;;;;0.10;0.10;;;21.00;99.90;;;;;;5049893;28;20200;-83
2023/08/29 10:45:59;;;;;;;0.10;0.10;;;21.20;99.90;;;;;;5049207;28;20287;-82
2023/08/29 10:48:41;;;;;;;0.10;0.10;;;21.20;99.90;;;;;;5048745;28;20547;-82
2023/08/29 10:51:10;;;;;;;0.10;0.10;;;21.60;99.90;;;;;;5049161;28;20655;-82
2023/08/29 10:53:40;;;;;;;0.10;0.10;;;22.80;99.90;;;;;;5057904;28;20251;-83
2023/08/29 10:56:09;;;;;;;0.10;0.10;;;23.40;99.90;;;;;;5048210;28;20217;-82
2023/08/29 10:58:39;;;;;;;0.10;0.10;;;23.90;99.90;;;;;;5066263;28;20192;-82
2023/08/29 11:01:28;;;;;;;0.10;0.10;;;23.60;99.90;;;;;;5065618;28;20242;-82
2023/08/29 11:03:54;;;;;;;0.10;0.10;;;22.60;99.90;;;;;;5050067;28;20656;-82
2023/08/29 11:06:22;;;;;;;0.10;0.10;;;22.00;99.90;;;;;;5049565;28;20842;-82
2023/08/29 11:08:49;;;;;;;0.10;0.10;;;21.70;99.90;;;;;;5065414;28;20574;-82
2023/08/29 11:11:22;;;;;;;0.10;0.10;;;21.40;99.90;;;;;;5049004;28;20227;-82
2023/08/29 11:13:59;;;;;;;0.10;0.10;;;21.30;99.90;;;;;;5048848;28;20734;-83
2023/08/29 11:16:26;;;;;;;0.10;0.10;;;21.20;99.90;;;;;;5049733;28;20611;-82
2023/08/29 11:19:03;;;;;;;0.10;0.10;;;21.20;99.90;;;;;;5049244;28;20194;-82
2023/08/29 11:21:30;;;;;;;0.10;0.10;;;21.40;99.90;;;;;;5050327;28;20258;-80
2023/08/29 11:23:58;;;;;;;0.10;0.10;;;21.40;99.90;;;;;;5049549;28;20228;-80
2023/08/29 11:26:27;;;;;;;0.10;0.10;;;21.00;99.90;;;;;;5052876;28;20256;-82
2023/08/29 11:28:53;;;;;;;0.10;0.10;;;20.90;99.90;;;;;;5048067;28;20667;-82
2023/08/29 11:31:18;;;;;;;0.10;0.10;;;21.10;99.90;;;;;;5049996;28;20190;-82
2023/08/29 11:33:48;;;;;;;0.10;0.10;;;20.70;99.90;;;;;;5049273;28;20239;-82
2023/08/29 11:36:15;;;;;;;0.10;0.10;;;20.80;99.90;;;;;;5051182;28;20615;-83
2023/08/29 11:38:42;;;;;;;0.10;0.10;;;20.90;99.90;;;;;;5066291;28;20247;-82
2023/08/29 11:41:08;;;;;;;0.10;0.10;;;21.00;99.90;;;;;;5048984;28;20322;-82
2023/08/29 11:43:34;;;;;;;0.10;0.10;;;20.80;99.90;;;;;;5049753;28;20323;-82
2023/08/29 11:46:01;;;;;;;0.10;0.10;;;20.60;99.90;;;;;;5045953;28;20555;-83
2023/08/29 11:48:29;;;;;;;0.10;0.10;;;20.50;99.90;;;;;;5043576;28;20196;-82
2023/08/29 11:50:56;;;;;;;0.10;0.10;;;20.10;99.90;;;;;;5039540;28;20677;-82
2023/08/29 11:53:23;;;;;;;0.10;0.10;;;20.00;99.90;;;;;;5044241;28;20862;-82
2023/08/29 11:55:49;;;;;;;0.10;0.10;;;20.00;99.90;;;;;;5045067;28;20567;-83
2023/08/29 11:58:15;;;;;;;0.10;0.10;;;20.10;99.90;;;;;;5047783;28;20189;-82
2023/08/29 12:00:41;;;;;;;0.10;0.10;;;20.10;99.90;;;;;;5046482;28;20186;-83
2023/08/29 12:03:06;;;;;;;0.10;0.10;;;20.00;99.90;;;;;;5049411;28;20193;-83
2023/08/29 12:05:32;;;;;;;0.10;0.10;;;19.80;99.90;;;;;;5047172;28;20950;-83
2023/08/29 12:07:58;;;;;;;0.10;0.10;;;19.90;99.90;;;;;;5063983;28;20206;-83
2023/08/29 12:10:26;;;;;;;0.10;0.10;;;19.70;99.90;;;;;;5045590;28;20188;-81
2023/08/29 12:12:51;;;;;;;0.10;0.10;;;19.60;99.90;;;;;;5047028;28;20568;-82
2023/08/29 12:15:17;;;;;;;0.10;0.10;;;19.60;99.90;;;;;;5058910;28;20288;-83
2023/08/29 12:17:47;;;;;;;0.10;0.10;;;19.50;99.90;;;;;;5049037;28;20191;-83
2023/08/29 12:20:12;;;;;;;0.10;0.10;;;19.20;99.90;;;;;;5054195;28;20187;-82
2023/08/29 12:22:39;;;;;;;0.10;0.10;;;19.20;99.90;;;;;;5057348;28;20729;-83
2023/08/29 12:25:09;;;;;;;0.10;0.10;;;18.90;99.90;;;;;;5048659;28;20262;-82
2023/08/29 12:27:35;;;;;;;0.10;0.10;;;18.80;99.90;;;;;;5046700;28;20181;-83
2023/08/29 12:30:01;;;;;;;0.10;0.10;;;18.50;99.90;;;;;;5047182;28;20197;-82
2023/08/29 12:32:27;;;;;;;0.10;0.10;;;18.60;99.90;;;;;;5050210;28;20176;-82
2023/08/29 12:34:56;;;;;;;0.10;0.10;;;19.00;99.90;;;;;;5047392;28;20216;-82
2023/08/29 12:37:22;;;;;;;0.10;0.10;;;19.00;99.90;;;;;;5046865;28;20202;-82
2023/08/29 12:39:48;;;;;;;0.10;0.10;;;19.30;99.90;;;;;;5045165;28;20241;-83
2023/08/29 12:42:14;;;;;;;0.10;0.10;;;19.70;99.90;;;;;;5047474;28;20190;-82
2023/08/29 12:44:40;;;;;;;0.10;0.10;;;20.00;99.90;;;;;;5047434;28;20209;-82
2023/08/29 12:47:05;;;;;;;0.10;0.10;;;19.70;99.90;;;;;;5048242;28;20201;-82